Terminal Aerodrome Forecast
Issued by NWS

Home | Current Version | Previous Version | Text Only | Print | Product List | Glossary On
Versions: 1 2 3 4 5 6 7 8 9 10 11 12 13 14 15 16 17 18 19
000
FTUS45 KABQ 221741
TAFLVS
TAF
KLVS 221741Z 2218/2318 02009KT P6SM SCT060
     FM222000 05013KT P6SM VCTS BKN030CB
     FM222300 06012KT 6SM -SHRA BKN025
     FM230200 04006KT 6SM BR VCSH OVC030
     FM230800 08006KT 5SM BR OVC015
     FM231400 18006KT P6SM FEW040=

USA.gov is the U.S. government's official web portal to all federal, state and local government web resources and services.